createdAt,value
2018-12-25T00:00:29.454Z,10.31047
2018-12-25T00:01:33.806Z,10.31047
2018-12-25T00:02:54.241Z,10.09621
2018-12-25T00:03:53.958Z,10.31047
2018-12-25T00:05:01.448Z,10.31047
2018-12-25T00:06:03.578Z,10.31047
2018-12-25T00:07:06.936Z,10.31047
2018-12-25T00:08:07.938Z,10.26762
2018-12-25T00:09:08.917Z,10.26762
2018-12-25T00:10:09.498Z,10.26762
2018-12-25T00:11:20.892Z,10.26762
2018-12-25T00:12:20.263Z,10.26762
2018-12-25T00:13:20.645Z,10.26762
2018-12-25T00:14:21.640Z,10.26762
2018-12-25T00:15:25.164Z,10.26762
2018-12-25T00:16:24.462Z,10.26762
2018-12-25T00:17:24.317Z,10.26762
2018-12-25T00:18:23.376Z,10.26762
2018-12-25T00:19:23.075Z,10.26762
2018-12-25T00:20:23.131Z,10.26762
2018-12-25T00:21:22.458Z,10.26762
2018-12-25T00:22:28.631Z,10.26762
2018-12-25T00:23:28.728Z,10.26762
2018-12-25T00:24:28.117Z,10.26762
2018-12-25T00:25:35.588Z,10.26762
2018-12-25T00:26:35.256Z,10.26762
2018-12-25T00:27:42.387Z,10.26762
2018-12-25T00:28:41.442Z,10.22477
2018-12-25T00:29:48.629Z,10.26762
2018-12-25T00:30:52.054Z,10.22477
2018-12-25T00:31:52.174Z,10.22477
2018-12-25T00:32:51.116Z,10.05336
2018-12-25T00:33:53.263Z,10.22477
2018-12-25T00:34:54.911Z,10.22477
2018-12-25T00:35:54.535Z,10.22477
2018-12-25T00:37:00.023Z,10.22477
2018-12-25T00:38:02.272Z,10.22477
2018-12-25T00:39:04.742Z,10.22477
2018-12-25T00:40:04.451Z,10.13906
2018-12-25T00:41:11.070Z,10.22477
2018-12-25T00:42:09.520Z,10.13906
2018-12-25T00:43:07.990Z,10.22477
2018-12-25T00:44:06.563Z,10.13906
2018-12-25T00:45:13.206Z,10.22477
2018-12-25T00:46:20.356Z,10.22477
2018-12-25T00:47:20.765Z,10.13906
2018-12-25T00:48:20.434Z,10.13906
2018-12-25T00:49:19.298Z,10.13906
2018-12-25T00:50:19.757Z,10.13906
2018-12-25T00:51:19.575Z,10.13906
2018-12-25T00:52:18.687Z,10.13906
2018-12-25T00:53:17.514Z,10.13906
2018-12-25T00:54:17.367Z,10.13906
2018-12-25T00:55:17.196Z,10.13906
2018-12-25T00:56:22.052Z,10.13906
2018-12-25T00:57:20.398Z,10.13906
2018-12-25T00:58:20.612Z,10.13906
2018-12-25T00:59:20.214Z,10.13906
2018-12-25T01:00:19.006Z,10.13906
2018-12-25T01:01:26.680Z,10.09621
2018-12-25T01:02:25.741Z,10.09621
2018-12-25T01:03:25.722Z,10.09621
2018-12-25T01:04:32.417Z,10.09621
2018-12-25T01:05:32.485Z,10.09621
2018-12-25T01:06:32.292Z,10.09621
2018-12-25T01:07:33.158Z,10.09621
2018-12-25T01:08:40.095Z,10.09621
2018-12-25T01:09:41.149Z,10.09621
2018-12-25T01:10:41.808Z,10.09621
2018-12-25T01:11:43.595Z,10.09621
2018-12-25T01:12:48.715Z,10.09621
2018-12-25T01:13:48.826Z,10.09621
2018-12-25T01:14:47.893Z,10.09621
2018-12-25T01:15:51.853Z,10.05336
2018-12-25T01:16:53.542Z,10.09621
2018-12-25T01:17:56.782Z,9.92481
2018-12-25T01:18:57.277Z,10.05336
2018-12-25T01:19:58.767Z,10.05336
2018-12-25T01:21:00.343Z,10.05336
2018-12-25T01:22:00.015Z,10.05336
2018-12-25T01:22:59.926Z,10.05336
2018-12-25T01:23:59.240Z,10.05336
2018-12-25T01:24:58.015Z,10.05336
2018-12-25T01:25:59.876Z,10.05336
2018-12-25T01:26:58.303Z,10.05336
2018-12-25T01:27:56.519Z,10.05336
2018-12-25T01:29:03.289Z,10.01051
2018-12-25T01:30:07.114Z,10.01051
2018-12-25T01:31:12.605Z,10.01051
2018-12-25T01:32:12.254Z,10.01051
2018-12-25T01:33:10.605Z,9.839108
2018-12-25T01:34:11.682Z,10.01051
2018-12-25T01:35:10.195Z,10.01051
2018-12-25T01:36:11.344Z,10.01051
2018-12-25T01:37:10.614Z,10.01051
2018-12-25T01:38:09.511Z,10.01051
2018-12-25T01:39:11.760Z,10.01051
2018-12-25T01:40:07.407Z,10.01051
2018-12-25T01:41:13.989Z,10.01051
2018-12-25T01:42:17.933Z,9.967661
2018-12-25T01:43:18.916Z,9.967661
2018-12-25T01:44:17.876Z,9.967661
2018-12-25T01:45:17.471Z,9.967661
2018-12-25T01:46:18.485Z,9.967661
2018-12-25T01:47:21.325Z,9.967661
2018-12-25T01:48:24.663Z,9.967661
2018-12-25T01:49:31.942Z,9.967661
2018-12-25T01:50:33.970Z,9.967661
2018-12-25T01:51:35.009Z,9.967661
2018-12-25T01:52:33.154Z,9.92481
2018-12-25T01:53:31.220Z,9.92481
2018-12-25T01:54:34.141Z,9.92481
2018-12-25T01:55:35.591Z,9.92481
2018-12-25T01:56:38.990Z,9.92481
2018-12-25T01:57:42.373Z,9.92481
2018-12-25T01:58:47.753Z,9.92481
2018-12-25T01:59:48.554Z,9.92481
2018-12-25T02:00:51.864Z,9.92481
2018-12-25T02:01:50.148Z,9.88196
2018-12-25T02:02:48.594Z,9.710557
2018-12-25T02:03:47.490Z,9.88196
2018-12-25T02:04:47.780Z,9.88196
2018-12-25T02:05:52.781Z,9.88196
2018-12-25T02:06:55.922Z,9.88196
2018-12-25T02:07:58.046Z,9.839108
2018-12-25T02:08:58.564Z,9.839108
2018-12-25T02:09:57.087Z,9.839108
2018-12-25T02:10:55.910Z,9.839108
2018-12-25T02:12:03.788Z,9.839108
2018-12-25T02:13:05.126Z,9.839108
2018-12-25T02:14:05.741Z,9.839108
2018-12-25T02:15:05.833Z,9.839108
2018-12-25T02:16:05.214Z,9.796258
2018-12-25T02:17:04.339Z,9.796258
2018-12-25T02:18:02.477Z,9.624855
2018-12-25T02:19:03.169Z,9.753408
2018-12-25T02:20:02.941Z,9.796258
2018-12-25T02:21:02.236Z,9.753408
2018-12-25T02:22:03.579Z,9.753408
2018-12-25T02:23:01.646Z,9.753408
2018-12-25T02:24:06.616Z,9.753408
2018-12-25T02:25:07.288Z,9.753408
2018-12-25T02:26:09.050Z,9.753408
2018-12-25T02:27:13.234Z,9.753408
2018-12-25T02:28:15.654Z,9.753408
2018-12-25T02:29:22.637Z,9.753408
2018-12-25T02:30:22.931Z,9.710557
2018-12-25T02:31:23.351Z,9.710557
2018-12-25T02:32:22.177Z,9.710557
2018-12-25T02:33:20.678Z,9.710557
2018-12-25T02:34:18.855Z,9.710557
2018-12-25T02:35:17.643Z,9.710557
2018-12-25T02:36:16.095Z,9.710557
2018-12-25T02:37:14.444Z,9.710557
2018-12-25T02:38:20.168Z,9.710557
2018-12-25T02:39:18.287Z,9.624855
2018-12-25T02:40:19.205Z,9.710557
2018-12-25T02:41:27.107Z,9.624855
2018-12-25T02:42:32.495Z,9.624855
2018-12-25T02:43:37.419Z,9.624855
2018-12-25T02:44:42.102Z,9.624855
2018-12-25T02:45:44.786Z,9.624855
2018-12-25T02:46:48.872Z,9.624855
2018-12-25T02:47:49.532Z,9.453452
2018-12-25T02:48:55.710Z,9.582005
2018-12-25T02:49:57.815Z,9.582005
2018-12-25T02:50:59.699Z,9.582005
2018-12-25T02:51:57.599Z,9.582005
2018-12-25T02:52:56.133Z,9.582005
2018-12-25T02:53:59.213Z,9.582005
2018-12-25T02:54:57.411Z,9.582005
2018-12-25T02:55:56.603Z,9.539153
2018-12-25T02:56:58.944Z,9.582005
2018-12-25T02:58:10.074Z,9.539153
2018-12-25T02:59:08.445Z,9.539153
2018-12-25T03:00:11.020Z,9.539153
2018-12-25T03:01:09.211Z,9.539153
2018-12-25T03:02:10.914Z,9.539153
2018-12-25T03:03:09.670Z,9.3249
2018-12-25T03:04:08.480Z,9.496303
2018-12-25T03:05:06.970Z,9.496303
2018-12-25T03:06:05.990Z,9.496303
2018-12-25T03:07:03.801Z,9.453452
2018-12-25T03:08:03.723Z,9.453452
2018-12-25T03:09:02.338Z,9.453452
2018-12-25T03:10:01.494Z,9.453452
2018-12-25T03:10:59.985Z,9.453452
2018-12-25T03:11:59.790Z,9.453452
2018-12-25T03:13:00.269Z,9.453452
2018-12-25T03:14:01.343Z,9.453452
2018-12-25T03:14:59.980Z,9.453452
2018-12-25T03:15:57.926Z,9.410601
2018-12-25T03:16:59.874Z,9.410601
2018-12-25T03:17:58.558Z,9.239198
2018-12-25T03:18:57.598Z,9.36775
2018-12-25T03:20:00.381Z,9.36775
2018-12-25T03:20:59.523Z,9.36775
2018-12-25T03:21:58.281Z,9.36775
2018-12-25T03:22:59.737Z,9.36775
2018-12-25T03:24:02.032Z,9.36775
2018-12-25T03:25:09.905Z,9.36775
2018-12-25T03:26:13.336Z,9.3249
2018-12-25T03:27:13.250Z,9.36775
2018-12-25T03:28:13.973Z,9.36775
2018-12-25T03:29:18.182Z,9.3249
2018-12-25T03:30:17.073Z,9.3249
2018-12-25T03:31:15.174Z,9.3249
2018-12-25T03:32:25.031Z,9.3249
2018-12-25T03:33:23.544Z,9.282049
2018-12-25T03:34:22.658Z,9.282049
2018-12-25T03:35:22.886Z,9.282049
2018-12-25T03:36:20.890Z,9.282049
2018-12-25T03:37:18.877Z,9.239198
2018-12-25T03:38:19.118Z,9.239198
2018-12-25T03:39:21.273Z,9.282049
2018-12-25T03:40:19.058Z,9.239198
2018-12-25T03:41:20.078Z,9.239198
2018-12-25T03:42:19.570Z,9.239198
2018-12-25T03:43:21.655Z,9.239198
2018-12-25T03:44:33.153Z,9.239198
2018-12-25T03:45:31.933Z,9.239198
2018-12-25T03:46:29.733Z,9.239198
2018-12-25T03:47:28.846Z,9.239198
2018-12-25T03:48:27.026Z,9.196347
2018-12-25T03:49:26.902Z,9.196347
2018-12-25T03:50:24.823Z,9.196347
2018-12-25T03:51:23.624Z,9.196347
2018-12-25T03:52:22.981Z,9.196347
2018-12-25T03:53:25.707Z,9.196347
2018-12-25T03:54:24.249Z,9.110645
2018-12-25T03:55:26.798Z,9.196347
2018-12-25T03:56:25.935Z,9.110645
2018-12-25T03:57:24.586Z,9.110645
2018-12-25T03:58:28.791Z,9.110645
2018-12-25T03:59:29.025Z,9.110645
2018-12-25T04:00:27.086Z,9.110645
2018-12-25T04:01:26.133Z,9.110645
2018-12-25T04:02:25.848Z,9.110645
2018-12-25T04:03:24.766Z,9.067795
2018-12-25T04:04:23.895Z,9.067795
2018-12-25T04:05:21.751Z,9.067795
2018-12-25T04:06:20.674Z,9.067795
2018-12-25T04:07:21.250Z,9.024944
2018-12-25T04:08:21.648Z,9.067795
2018-12-25T04:09:24.746Z,9.024944
2018-12-25T04:10:30.430Z,9.024944
2018-12-25T04:11:29.867Z,9.024944
2018-12-25T04:12:28.175Z,8.982093
2018-12-25T04:13:28.872Z,8.982093
2018-12-25T04:14:27.053Z,8.982093
2018-12-25T04:15:31.285Z,8.982093
2018-12-25T04:16:31.661Z,8.982093
2018-12-25T04:17:30.157Z,8.939242
2018-12-25T04:18:31.820Z,8.939242
2018-12-25T04:19:31.317Z,8.939242
2018-12-25T04:20:33.296Z,8.939242
2018-12-25T04:21:46.762Z,8.939242
2018-12-25T04:22:45.608Z,8.939242
2018-12-25T04:23:45.777Z,8.939242
2018-12-25T04:24:45.851Z,8.939242
2018-12-25T04:25:47.928Z,8.896392
2018-12-25T04:26:45.740Z,8.939242
2018-12-25T04:27:44.741Z,8.896392
2018-12-25T04:28:52.365Z,8.896392
2018-12-25T04:29:55.609Z,8.896392
2018-12-25T04:30:54.677Z,8.896392
2018-12-25T04:31:56.377Z,8.896392
2018-12-25T04:33:00.571Z,8.724989
2018-12-25T04:34:00.349Z,8.853541
2018-12-25T04:34:59.381Z,8.853541
2018-12-25T04:36:02.753Z,8.853541
2018-12-25T04:37:06.767Z,8.853541
2018-12-25T04:38:05.980Z,8.853541
2018-12-25T04:39:05.244Z,8.853541
2018-12-25T04:40:04.665Z,8.853541
2018-12-25T04:41:03.250Z,8.853541
2018-12-25T04:42:01.509Z,8.81069
2018-12-25T04:43:00.444Z,8.81069
2018-12-25T04:44:03.049Z,8.81069
2018-12-25T04:45:02.961Z,8.81069
2018-12-25T04:46:03.521Z,8.81069
2018-12-25T04:47:04.327Z,8.81069
2018-12-25T04:48:03.126Z,8.553586
2018-12-25T04:49:00.886Z,8.767839
2018-12-25T04:50:00.277Z,8.767839
2018-12-25T04:50:59.266Z,8.767839
2018-12-25T04:51:59.040Z,8.767839
2018-12-25T04:53:01.833Z,8.767839
2018-12-25T04:53:59.952Z,8.724989
2018-12-25T04:54:57.669Z,8.767839
2018-12-25T04:55:55.954Z,8.724989
2018-12-25T04:56:56.323Z,8.767839
2018-12-25T04:57:55.850Z,8.724989
2018-12-25T04:58:59.127Z,8.724989
2018-12-25T04:59:57.694Z,8.724989
2018-12-25T05:01:03.589Z,8.724989
2018-12-25T05:02:03.507Z,8.724989
2018-12-25T05:03:01.734Z,8.425034
2018-12-25T05:04:06.442Z,8.682138
2018-12-25T05:05:05.013Z,8.682138
2018-12-25T05:06:05.760Z,8.682138
2018-12-25T05:07:05.429Z,8.596437
2018-12-25T05:08:04.826Z,8.596437
2018-12-25T05:09:04.627Z,8.596437
2018-12-25T05:10:04.000Z,8.596437
2018-12-25T05:11:06.159Z,8.596437
2018-12-25T05:12:09.605Z,8.596437
2018-12-25T05:13:08.953Z,8.596437
2018-12-25T05:14:07.833Z,8.596437
2018-12-25T05:15:05.699Z,8.553586
2018-12-25T05:16:04.702Z,8.553586
2018-12-25T05:17:05.581Z,8.553586
2018-12-25T05:18:04.819Z,8.339332
2018-12-25T05:19:02.951Z,8.510735
2018-12-25T05:20:06.093Z,8.553586
2018-12-25T05:21:03.954Z,8.510735
2018-12-25T05:22:05.258Z,8.510735
2018-12-25T05:23:07.616Z,8.510735
2018-12-25T05:24:08.682Z,8.510735
2018-12-25T05:25:08.365Z,8.510735
2018-12-25T05:26:07.440Z,8.510735
2018-12-25T05:27:05.723Z,8.510735
2018-12-25T05:28:03.471Z,8.510735
2018-12-25T05:29:10.098Z,8.510735
2018-12-25T05:30:07.910Z,8.467884
2018-12-25T05:31:09.072Z,8.510735
2018-12-25T05:32:09.617Z,8.467884
2018-12-25T05:33:10.432Z,8.25363
2018-12-25T05:34:10.456Z,8.425034
2018-12-25T05:35:12.504Z,8.425034
2018-12-25T05:36:18.578Z,8.425034
2018-12-25T05:37:23.803Z,8.425034
2018-12-25T05:38:22.503Z,8.425034
2018-12-25T05:39:22.069Z,8.425034
2018-12-25T05:40:21.153Z,8.425034
2018-12-25T05:41:22.802Z,8.425034
2018-12-25T05:42:20.569Z,8.425034
2018-12-25T05:43:19.634Z,8.425034
2018-12-25T05:44:22.863Z,8.425034
2018-12-25T05:45:22.310Z,8.425034
2018-12-25T05:46:20.062Z,8.382182
2018-12-25T05:47:19.285Z,8.382182
2018-12-25T05:48:16.792Z,8.082227
2018-12-25T05:49:18.228Z,8.382182
2018-12-25T05:50:16.589Z,8.382182
2018-12-25T05:51:17.928Z,8.382182
2018-12-25T05:52:16.516Z,8.339332
2018-12-25T05:53:15.163Z,8.382182
2018-12-25T05:54:15.922Z,8.339332
2018-12-25T05:55:19.385Z,8.382182
2018-12-25T05:56:15.494Z,8.339332
2018-12-25T05:57:20.252Z,8.339332
2018-12-25T05:58:24.748Z,8.339332
2018-12-25T05:59:04.140Z,8.339332
2018-12-25T06:00:01.686Z,8.339332
2018-12-25T06:01:02.363Z,8.339332
2018-12-25T06:02:02.986Z,8.339332
2018-12-25T06:03:02.826Z,8.039376
2018-12-25T06:04:13.633Z,8.296481
2018-12-25T06:05:12.469Z,8.296481
2018-12-25T06:06:11.277Z,8.296481
2018-12-25T06:07:14.098Z,8.296481
2018-12-25T06:08:12.511Z,8.296481
2018-12-25T06:09:14.370Z,8.296481
2018-12-25T06:10:15.527Z,8.25363
2018-12-25T06:11:20.609Z,8.25363
2018-12-25T06:12:24.575Z,8.25363
2018-12-25T06:13:22.176Z,8.25363
2018-12-25T06:14:24.254Z,8.25363
2018-12-25T06:15:24.137Z,8.25363
2018-12-25T06:16:24.000Z,8.25363
2018-12-25T06:17:23.315Z,8.210779
2018-12-25T06:18:22.672Z,7.953675
2018-12-25T06:19:24.809Z,8.210779
2018-12-25T06:20:23.827Z,8.210779
2018-12-25T06:21:22.573Z,8.167929
2018-12-25T06:22:24.456Z,8.167929
2018-12-25T06:23:22.203Z,8.167929
2018-12-25T06:24:20.391Z,8.167929
2018-12-25T06:25:19.175Z,8.167929
2018-12-25T06:26:17.573Z,8.167929
2018-12-25T06:27:16.556Z,8.167929
2018-12-25T06:28:15.899Z,8.167929
2018-12-25T06:29:19.217Z,8.082227
2018-12-25T06:30:23.100Z,8.082227
2018-12-25T06:31:21.802Z,8.082227
2018-12-25T06:32:21.076Z,8.082227
2018-12-25T06:33:20.639Z,7.867973
2018-12-25T06:34:29.005Z,8.039376
2018-12-25T06:35:29.306Z,8.082227
2018-12-25T06:36:32.687Z,8.082227
2018-12-25T06:37:31.035Z,8.082227
2018-12-25T06:38:33.260Z,8.039376
2018-12-25T06:39:30.642Z,8.039376
2018-12-25T06:40:28.345Z,8.039376
2018-12-25T06:41:26.449Z,8.039376
2018-12-25T06:42:25.370Z,8.039376
2018-12-25T06:43:30.722Z,8.039376
2018-12-25T06:44:34.131Z,8.039376
2018-12-25T06:45:32.629Z,8.039376
2018-12-25T06:46:34.191Z,7.996525
2018-12-25T06:47:31.994Z,7.996525
2018-12-25T06:48:35.513Z,7.996525
2018-12-25T06:49:36.344Z,7.996525
2018-12-25T06:50:39.444Z,7.996525
2018-12-25T06:51:37.241Z,7.996525
2018-12-25T06:52:40.216Z,7.996525
2018-12-25T06:53:39.774Z,7.953675
2018-12-25T06:54:39.371Z,7.996525
2018-12-25T06:55:38.652Z,7.953675
2018-12-25T06:56:42.602Z,7.953675
2018-12-25T06:57:46.066Z,7.953675
2018-12-25T06:58:44.980Z,7.953675
2018-12-25T06:59:46.021Z,7.953675
2018-12-25T07:00:43.771Z,7.953675
2018-12-25T07:01:49.571Z,7.953675
2018-12-25T07:02:47.371Z,7.910824
2018-12-25T07:03:45.566Z,7.910824
2018-12-25T07:04:44.039Z,7.910824
2018-12-25T07:05:41.795Z,7.867973
2018-12-25T07:06:40.606Z,7.910824
2018-12-25T07:07:42.481Z,7.867973
2018-12-25T07:08:41.267Z,7.910824
2018-12-25T07:09:41.164Z,7.867973
2018-12-25T07:10:39.186Z,7.867973
2018-12-25T07:11:39.360Z,7.867973
2018-12-25T07:12:36.898Z,7.867973
2018-12-25T07:13:37.799Z,7.825122
2018-12-25T07:14:37.833Z,7.825122
2018-12-25T07:15:42.132Z,7.825122
2018-12-25T07:16:47.544Z,7.825122
2018-12-25T07:17:51.100Z,7.825122
2018-12-25T07:18:50.155Z,7.782271
2018-12-25T07:19:56.652Z,7.739421
2018-12-25T07:20:56.647Z,7.739421
2018-12-25T07:21:56.741Z,7.782271
2018-12-25T07:22:55.390Z,7.739421
2018-12-25T07:23:54.147Z,7.739421
2018-12-25T07:24:52.308Z,7.739421
2018-12-25T07:25:49.988Z,7.739421
2018-12-25T07:26:47.402Z,7.739421
2018-12-25T07:27:48.090Z,7.739421
2018-12-25T07:28:47.331Z,7.69657
2018-12-25T07:29:52.874Z,7.69657
2018-12-25T07:30:51.759Z,7.69657
2018-12-25T07:31:56.709Z,7.69657
2018-12-25T07:32:56.544Z,7.69657
2018-12-25T07:33:57.946Z,7.653719
2018-12-25T07:34:55.365Z,7.653719
2018-12-25T07:35:54.249Z,7.653719
2018-12-25T07:36:51.755Z,7.653719
2018-12-25T07:37:56.567Z,7.653719
2018-12-25T07:39:05.756Z,7.653719
2018-12-25T07:40:11.346Z,7.568018
2018-12-25T07:41:09.036Z,7.568018
2018-12-25T07:42:07.814Z,7.568018
2018-12-25T07:43:08.022Z,7.568018
2018-12-25T07:44:06.839Z,7.568018
2018-12-25T07:45:17.677Z,7.525167
2018-12-25T07:46:16.483Z,7.525167
2018-12-25T07:47:15.025Z,7.525167
2018-12-25T07:48:13.932Z,7.225211
2018-12-25T07:49:11.813Z,7.482316
2018-12-25T07:50:12.288Z,7.482316
2018-12-25T07:51:11.264Z,7.482316
2018-12-25T07:52:14.450Z,7.482316
2018-12-25T07:53:12.832Z,7.439465
2018-12-25T07:54:14.886Z,7.482316
2018-12-25T07:55:20.146Z,7.439465
2018-12-25T07:56:19.717Z,7.439465
2018-12-25T07:57:17.446Z,7.439465
2018-12-25T07:58:15.669Z,7.439465
2018-12-25T07:59:14.588Z,7.396615
2018-12-25T08:00:14.033Z,7.396615
2018-12-25T08:01:14.717Z,7.353764
2018-12-25T08:02:13.852Z,7.396615
2018-12-25T08:03:22.323Z,7.053808
2018-12-25T08:04:23.166Z,7.310913
2018-12-25T08:05:23.883Z,7.310913
2018-12-25T08:06:21.357Z,7.310913
2018-12-25T08:07:19.211Z,7.268062
2018-12-25T08:08:19.006Z,7.268062
2018-12-25T08:09:20.177Z,7.268062
2018-12-25T08:10:20.994Z,7.268062
2018-12-25T08:11:18.874Z,7.268062
2018-12-25T08:12:18.574Z,7.225211
2018-12-25T08:13:23.657Z,7.268062
2018-12-25T08:14:26.229Z,7.225211
2018-12-25T08:15:29.513Z,7.225211
2018-12-25T08:16:27.289Z,7.225211
2018-12-25T08:17:27.275Z,7.225211
2018-12-25T08:18:25.254Z,6.882405
2018-12-25T08:19:25.281Z,7.182361
2018-12-25T08:20:28.304Z,7.182361
2018-12-25T08:21:29.318Z,7.13951
2018-12-25T08:22:24.344Z,7.13951
2018-12-25T08:23:23.755Z,7.13951
2018-12-25T08:24:24.995Z,7.13951
2018-12-25T08:25:25.866Z,7.13951
2018-12-25T08:26:23.116Z,7.053808
2018-12-25T08:27:20.700Z,7.053808
2018-12-25T08:28:23.287Z,7.053808
2018-12-25T08:29:25.144Z,7.053808
2018-12-25T08:30:23.257Z,7.010957
2018-12-25T08:31:21.794Z,7.010957
2018-12-25T08:32:20.853Z,7.010957
2018-12-25T08:33:19.708Z,6.711002
2018-12-25T08:34:17.910Z,6.968107
2018-12-25T08:35:16.024Z,6.925256
2018-12-25T08:36:17.155Z,6.882405
2018-12-25T08:37:14.358Z,6.882405
2018-12-25T08:38:11.151Z,6.882405
2018-12-25T08:39:09.627Z,6.882405
2018-12-25T08:40:13.449Z,6.882405
2018-12-25T08:41:10.817Z,6.882405
2018-12-25T08:42:08.098Z,6.839554
2018-12-25T08:43:05.928Z,6.839554
2018-12-25T08:44:10.041Z,6.839554
2018-12-25T08:45:09.911Z,6.839554
2018-12-25T08:46:06.623Z,6.839554
2018-12-25T08:47:04.584Z,6.796703
2018-12-25T08:48:02.187Z,6.796703
2018-12-25T08:48:59.088Z,6.753853
2018-12-25T08:49:56.558Z,6.753853
2018-12-25T08:51:00.036Z,6.753853
2018-12-25T08:52:00.444Z,6.753853
2018-12-25T08:52:57.134Z,6.711002
2018-12-25T08:53:57.170Z,6.711002
2018-12-25T08:54:53.330Z,6.711002
2018-12-25T08:55:51.060Z,6.711002
2018-12-25T08:56:50.350Z,6.668151
2018-12-25T08:57:46.529Z,6.668151
2018-12-25T08:58:51.019Z,6.668151
2018-12-25T08:59:47.848Z,6.6253
2018-12-25T09:00:49.703Z,6.6253
2018-12-25T09:01:54.626Z,6.6253
2018-12-25T09:02:55.910Z,6.6253
2018-12-25T09:03:53.330Z,6.496748
2018-12-25T09:04:54.996Z,6.539599
2018-12-25T09:05:56.504Z,6.496748
2018-12-25T09:06:53.382Z,6.496748
2018-12-25T09:07:52.978Z,6.496748
2018-12-25T09:08:51.741Z,6.496748
2018-12-25T09:09:51.768Z,6.453897
2018-12-25T09:10:48.173Z,6.453897
2018-12-25T09:11:44.441Z,6.453897
2018-12-25T09:12:44.814Z,6.453897
2018-12-25T09:13:41.810Z,6.411047
2018-12-25T09:14:38.945Z,6.411047
2018-12-25T09:15:35.131Z,6.411047
2018-12-25T09:16:34.411Z,6.411047
2018-12-25T09:17:31.180Z,6.411047
2018-12-25T09:18:28.349Z,5.811136
2018-12-25T09:19:24.308Z,6.325345
2018-12-25T09:20:23.122Z,6.368196
2018-12-25T09:21:20.915Z,6.368196
2018-12-25T09:22:22.732Z,6.325345
2018-12-25T09:23:18.615Z,6.325345
2018-12-25T09:24:14.717Z,6.325345
2018-12-25T09:25:15.668Z,6.325345
2018-12-25T09:26:13.882Z,6.325345
2018-12-25T09:27:11.373Z,6.325345
2018-12-25T09:28:08.457Z,6.282494
2018-12-25T09:29:07.126Z,6.325345
2018-12-25T09:30:03.795Z,6.282494
2018-12-25T09:31:02.476Z,6.282494
2018-12-25T09:32:06.579Z,6.282494
2018-12-25T09:33:02.219Z,6.282494
2018-12-25T09:34:02.827Z,6.239644
2018-12-25T09:35:02.354Z,6.239644
2018-12-25T09:35:59.821Z,6.239644
2018-12-25T09:36:55.894Z,6.239644
2018-12-25T09:37:53.835Z,6.196793
2018-12-25T09:38:49.709Z,6.196793
2018-12-25T09:39:49.786Z,6.196793
2018-12-25T09:40:49.164Z,6.196793
2018-12-25T09:41:47.582Z,6.153942
2018-12-25T09:42:47.512Z,6.153942
2018-12-25T09:43:47.810Z,6.153942
2018-12-25T09:44:44.312Z,6.111091
2018-12-25T09:45:40.426Z,6.111091
2018-12-25T09:46:37.772Z,6.111091
2018-12-25T09:47:35.430Z,6.111091
2018-12-25T09:48:31.973Z,5.468329
2018-12-25T09:49:31.183Z,5.896837
2018-12-25T09:50:28.230Z,5.896837
2018-12-25T09:51:27.259Z,5.982539
2018-12-25T09:52:23.622Z,5.939688
2018-12-25T09:53:21.966Z,5.853986
2018-12-25T09:54:18.846Z,5.896837
2018-12-25T09:55:15.789Z,5.853986
2018-12-25T09:56:13.171Z,5.853986
2018-12-25T09:57:12.710Z,5.853986
2018-12-25T09:58:17.349Z,5.896837
2018-12-25T09:59:14.342Z,5.811136
2018-12-25T10:00:16.537Z,5.853986
2018-12-25T10:01:15.912Z,5.768285
2018-12-25T10:02:12.560Z,5.811136
2018-12-25T10:03:09.189Z,5.468329
2018-12-25T10:04:06.271Z,5.768285
2018-12-25T10:05:05.640Z,5.768285
2018-12-25T10:06:08.292Z,5.768285
2018-12-25T10:07:04.896Z,5.768285
2018-12-25T10:08:04.396Z,5.768285
2018-12-25T10:09:01.778Z,5.768285
2018-12-25T10:10:04.232Z,5.725434
2018-12-25T10:11:00.872Z,5.725434
2018-12-25T10:12:00.788Z,5.725434
2018-12-25T10:12:59.996Z,5.725434
2018-12-25T10:13:56.955Z,5.725434
2018-12-25T10:14:53.883Z,5.725434
2018-12-25T10:15:52.923Z,5.682583
2018-12-25T10:16:52.070Z,5.682583
2018-12-25T10:17:50.181Z,5.725434
2018-12-25T10:18:48.701Z,5.639732
2018-12-25T10:19:46.350Z,5.682583
2018-12-25T10:20:44.681Z,5.682583
2018-12-25T10:21:45.408Z,5.682583
2018-12-25T10:22:45.990Z,5.639732
2018-12-25T10:23:45.802Z,5.639732
2018-12-25T10:24:45.474Z,5.639732
2018-12-25T10:25:47.631Z,5.639732
2018-12-25T10:26:47.679Z,5.639732
2018-12-25T10:27:48.464Z,5.639732
2018-12-25T10:28:45.695Z,5.639732
2018-12-25T10:29:42.972Z,5.639732
2018-12-25T10:30:40.280Z,5.596882
2018-12-25T10:31:37.745Z,5.596882
2018-12-25T10:32:38.768Z,5.596882
2018-12-25T10:33:37.265Z,5.382628
2018-12-25T10:34:34.829Z,5.468329
2018-12-25T10:35:33.325Z,5.468329
2018-12-25T10:36:34.832Z,5.468329
2018-12-25T10:37:33.150Z,5.468329
2018-12-25T10:38:36.035Z,5.468329
2018-12-25T10:39:33.490Z,5.425478
2018-12-25T10:40:31.931Z,5.425478
2018-12-25T10:41:30.011Z,5.382628
2018-12-25T10:42:31.599Z,5.425478
2018-12-25T10:43:29.818Z,5.425478
2018-12-25T10:44:29.038Z,5.382628
2018-12-25T10:45:29.482Z,5.382628
2018-12-25T10:46:26.916Z,5.382628
2018-12-25T10:47:28.441Z,5.339777
2018-12-25T10:48:26.184Z,4.95412
2018-12-25T10:49:23.785Z,5.339777
2018-12-25T10:50:23.068Z,5.339777
2018-12-25T10:51:35.486Z,5.339777
2018-12-25T10:52:37.518Z,5.296926
2018-12-25T10:53:43.472Z,5.296926
2018-12-25T10:54:50.639Z,5.296926
2018-12-25T10:55:49.345Z,5.296926
2018-12-25T10:56:48.879Z,5.254076
2018-12-25T10:57:47.697Z,5.254076
2018-12-25T10:58:50.168Z,5.254076
2018-12-25T10:59:59.122Z,5.254076
2018-12-25T11:01:07.504Z,5.254076
2018-12-25T11:02:05.459Z,5.254076
2018-12-25T11:03:03.253Z,5.211225
2018-12-25T11:04:02.779Z,5.168374
2018-12-25T11:05:06.805Z,5.211225
2018-12-25T11:06:06.731Z,5.211225
2018-12-25T11:07:12.421Z,5.168374
2018-12-25T11:08:10.192Z,5.168374
2018-12-25T11:09:13.975Z,5.168374
2018-12-25T11:10:11.459Z,5.125523
2018-12-25T11:11:10.947Z,5.125523
2018-12-25T11:12:10.261Z,5.082672
2018-12-25T11:13:11.420Z,5.082672
2018-12-25T11:14:09.519Z,5.082672
2018-12-25T11:15:08.316Z,5.082672
2018-12-25T11:16:10.072Z,4.996971
2018-12-25T11:17:08.925Z,4.996971
2018-12-25T11:18:11.131Z,4.654164
2018-12-25T11:19:09.516Z,4.911269
2018-12-25T11:20:11.604Z,4.95412
2018-12-25T11:21:07.954Z,4.911269
2018-12-25T11:22:19.839Z,4.911269
2018-12-25T11:22:19.987Z,4.911269
2018-12-25T11:23:12.348Z,4.911269
2018-12-25T11:24:10.997Z,4.911269
2018-12-25T11:25:13.253Z,4.911269
2018-12-25T11:26:12.214Z,4.868418
2018-12-25T11:27:11.800Z,4.868418
2018-12-25T11:28:10.495Z,4.868418
2018-12-25T11:29:12.293Z,4.868418
2018-12-25T11:30:16.993Z,4.825568
2018-12-25T11:31:16.779Z,4.825568
2018-12-25T11:32:15.890Z,4.825568
2018-12-25T11:33:17.606Z,4.39706
2018-12-25T11:34:15.672Z,4.782717
2018-12-25T11:35:16.695Z,4.782717
2018-12-25T11:36:14.822Z,4.782717
2018-12-25T11:37:15.857Z,4.782717
2018-12-25T11:38:16.430Z,4.739866
2018-12-25T11:39:21.625Z,4.739866
2018-12-25T11:40:22.246Z,4.739866
2018-12-25T11:41:22.473Z,4.697015
2018-12-25T11:42:24.768Z,4.697015
2018-12-25T11:43:24.137Z,4.654164
2018-12-25T11:44:26.112Z,4.654164
2018-12-25T11:45:24.747Z,4.654164
2018-12-25T11:46:23.564Z,4.654164
2018-12-25T11:47:23.013Z,4.611314
2018-12-25T11:48:23.863Z,4.182806
2018-12-25T11:49:22.235Z,4.568463
2018-12-25T11:50:20.648Z,4.568463